sensor_id;sensor_type;location;lat;lon;timestamp;P1;durP1;ratioP1;P2;durP2;ratioP2
13234;SDS011;6683;48.506;9.050;2023-06-04T00:02:04;5.03;;;4.30;;
13234;SDS011;6683;48.506;9.050;2023-06-04T00:05:07;5.07;;;4.47;;
13234;SDS011;6683;48.506;9.050;2023-06-04T00:08:09;4.47;;;4.07;;
13234;SDS011;6683;48.506;9.050;2023-06-04T00:11:13;4.87;;;4.40;;
13234;SDS011;6683;48.506;9.050;2023-06-04T00:14:16;5.20;;;4.60;;
13234;SDS011;6683;48.506;9.050;2023-06-04T00:17:18;5.40;;;4.47;;
13234;SDS011;6683;48.506;9.050;2023-06-04T00:20:21;5.77;;;4.63;;
13234;SDS011;6683;48.506;9.050;2023-06-04T00:23:23;4.93;;;4.47;;
13234;SDS011;6683;48.506;9.050;2023-06-04T00:26:27;5.33;;;4.83;;
13234;SDS011;6683;48.506;9.050;2023-06-04T00:29:29;5.03;;;4.27;;
13234;SDS011;6683;48.506;9.050;2023-06-04T00:32:32;5.33;;;4.83;;
13234;SDS011;6683;48.506;9.050;2023-06-04T00:35:34;5.93;;;5.03;;
13234;SDS011;6683;48.506;9.050;2023-06-04T00:38:37;5.30;;;4.80;;
13234;SDS011;6683;48.506;9.050;2023-06-04T00:41:40;6.27;;;4.47;;
13234;SDS011;6683;48.506;9.050;2023-06-04T00:44:43;5.43;;;4.57;;
13234;SDS011;6683;48.506;9.050;2023-06-04T00:47:45;6.10;;;5.20;;
13234;SDS011;6683;48.506;9.050;2023-06-04T00:50:48;5.97;;;4.53;;
13234;SDS011;6683;48.506;9.050;2023-06-04T00:53:52;6.50;;;4.57;;
13234;SDS011;6683;48.506;9.050;2023-06-04T00:56:56;5.93;;;4.70;;
13234;SDS011;6683;48.506;9.050;2023-06-04T00:59:58;5.83;;;4.73;;
13234;SDS011;6683;48.506;9.050;2023-06-04T01:03:01;5.53;;;4.97;;
13234;SDS011;6683;48.506;9.050;2023-06-04T01:06:11;5.10;;;4.60;;
13234;SDS011;6683;48.506;9.050;2023-06-04T01:09:22;5.60;;;4.80;;
13234;SDS011;6683;48.506;9.050;2023-06-04T01:12:27;4.77;;;4.27;;
13234;SDS011;6683;48.506;9.050;2023-06-04T01:15:29;5.67;;;4.90;;
13234;SDS011;6683;48.506;9.050;2023-06-04T01:18:32;5.33;;;4.57;;
13234;SDS011;6683;48.506;9.050;2023-06-04T01:21:38;6.13;;;4.57;;
13234;SDS011;6683;48.506;9.050;2023-06-04T01:24:44;4.90;;;4.43;;
13234;SDS011;6683;48.506;9.050;2023-06-04T01:27:57;6.57;;;5.10;;
13234;SDS011;6683;48.506;9.050;2023-06-04T01:31:00;5.97;;;5.00;;
13234;SDS011;6683;48.506;9.050;2023-06-04T01:34:07;5.33;;;4.83;;
13234;SDS011;6683;48.506;9.050;2023-06-04T01:37:09;5.23;;;4.67;;
13234;SDS011;6683;48.506;9.050;2023-06-04T01:40:12;5.57;;;5.00;;
13234;SDS011;6683;48.506;9.050;2023-06-04T01:43:16;5.17;;;4.70;;
13234;SDS011;6683;48.506;9.050;2023-06-04T01:46:19;4.83;;;4.33;;
13234;SDS011;6683;48.506;9.050;2023-06-04T01:49:21;5.27;;;4.60;;
13234;SDS011;6683;48.506;9.050;2023-06-04T01:52:23;6.83;;;4.97;;
13234;SDS011;6683;48.506;9.050;2023-06-04T01:55:26;6.67;;;4.80;;
13234;SDS011;6683;48.506;9.050;2023-06-04T01:58:34;5.33;;;4.83;;
13234;SDS011;6683;48.506;9.050;2023-06-04T02:01:37;5.87;;;4.90;;
13234;SDS011;6683;48.506;9.050;2023-06-04T02:04:39;5.27;;;4.73;;
13234;SDS011;6683;48.506;9.050;2023-06-04T02:07:43;5.40;;;4.90;;
13234;SDS011;6683;48.506;9.050;2023-06-04T02:10:49;5.27;;;4.70;;
13234;SDS011;6683;48.506;9.050;2023-06-04T02:13:53;5.17;;;4.67;;
13234;SDS011;6683;48.506;9.050;2023-06-04T02:16:56;5.53;;;5.03;;
13234;SDS011;6683;48.506;9.050;2023-06-04T02:19:59;4.83;;;4.40;;
13234;SDS011;6683;48.506;9.050;2023-06-04T02:23:04;6.60;;;4.53;;
13234;SDS011;6683;48.506;9.050;2023-06-04T02:26:07;5.00;;;4.50;;
13234;SDS011;6683;48.506;9.050;2023-06-04T02:29:12;5.50;;;4.93;;
13234;SDS011;6683;48.506;9.050;2023-06-04T02:32:15;5.80;;;5.17;;
13234;SDS011;6683;48.506;9.050;2023-06-04T02:35:17;4.77;;;4.37;;
13234;SDS011;6683;48.506;9.050;2023-06-04T02:38:21;5.13;;;4.63;;
13234;SDS011;6683;48.506;9.050;2023-06-04T02:41:23;5.80;;;5.30;;
13234;SDS011;6683;48.506;9.050;2023-06-04T02:44:27;5.40;;;4.90;;
13234;SDS011;6683;48.506;9.050;2023-06-04T02:47:30;5.47;;;4.87;;
13234;SDS011;6683;48.506;9.050;2023-06-04T02:50:33;5.37;;;4.37;;
13234;SDS011;6683;48.506;9.050;2023-06-04T02:53:35;5.47;;;4.97;;
13234;SDS011;6683;48.506;9.050;2023-06-04T02:56:38;5.77;;;4.83;;
13234;SDS011;6683;48.506;9.050;2023-06-04T02:59:42;5.53;;;5.03;;
13234;SDS011;6683;48.506;9.050;2023-06-04T03:02:46;6.80;;;5.07;;
13234;SDS011;6683;48.506;9.050;2023-06-04T03:05:49;5.70;;;4.60;;
13234;SDS011;6683;48.506;9.050;2023-06-04T03:08:52;5.23;;;4.47;;
13234;SDS011;6683;48.506;9.050;2023-06-04T03:11:56;6.10;;;4.97;;
13234;SDS011;6683;48.506;9.050;2023-06-04T03:15:03;5.40;;;4.90;;
13234;SDS011;6683;48.506;9.050;2023-06-04T03:18:07;5.60;;;5.10;;
13234;SDS011;6683;48.506;9.050;2023-06-04T03:21:10;6.97;;;5.60;;
13234;SDS011;6683;48.506;9.050;2023-06-04T03:24:13;5.93;;;4.97;;
13234;SDS011;6683;48.506;9.050;2023-06-04T03:27:16;5.10;;;4.60;;
13234;SDS011;6683;48.506;9.050;2023-06-04T03:30:19;5.30;;;4.80;;
13234;SDS011;6683;48.506;9.050;2023-06-04T03:33:22;5.73;;;5.13;;
13234;SDS011;6683;48.506;9.050;2023-06-04T03:36:24;6.57;;;5.17;;
13234;SDS011;6683;48.506;9.050;2023-06-04T03:39:31;6.03;;;5.07;;
13234;SDS011;6683;48.506;9.050;2023-06-04T03:42:34;5.93;;;5.30;;
13234;SDS011;6683;48.506;9.050;2023-06-04T03:45:38;6.53;;;5.10;;
13234;SDS011;6683;48.506;9.050;2023-06-04T03:48:40;7.00;;;5.00;;
13234;SDS011;6683;48.506;9.050;2023-06-04T03:51:43;6.23;;;5.13;;
13234;SDS011;6683;48.506;9.050;2023-06-04T03:54:45;5.87;;;5.23;;
13234;SDS011;6683;48.506;9.050;2023-06-04T03:57:48;5.73;;;5.10;;
13234;SDS011;6683;48.506;9.050;2023-06-04T04:00:52;7.43;;;5.50;;
13234;SDS011;6683;48.506;9.050;2023-06-04T04:03:54;5.97;;;5.13;;
13234;SDS011;6683;48.506;9.050;2023-06-04T04:06:57;6.87;;;5.17;;
13234;SDS011;6683;48.506;9.050;2023-06-04T04:10:01;6.70;;;5.30;;
13234;SDS011;6683;48.506;9.050;2023-06-04T04:13:04;5.63;;;4.90;;
13234;SDS011;6683;48.506;9.050;2023-06-04T04:16:08;6.63;;;4.97;;
13234;SDS011;6683;48.506;9.050;2023-06-04T04:19:10;5.17;;;4.67;;
13234;SDS011;6683;48.506;9.050;2023-06-04T04:22:12;5.80;;;4.83;;
13234;SDS011;6683;48.506;9.050;2023-06-04T04:25:17;7.60;;;5.40;;
13234;SDS011;6683;48.506;9.050;2023-06-04T04:28:19;5.13;;;4.63;;
13234;SDS011;6683;48.506;9.050;2023-06-04T04:31:23;5.27;;;4.77;;
13234;SDS011;6683;48.506;9.050;2023-06-04T04:34:26;5.67;;;5.00;;
13234;SDS011;6683;48.506;9.050;2023-06-04T04:37:29;5.03;;;4.37;;
13234;SDS011;6683;48.506;9.050;2023-06-04T04:40:31;5.97;;;5.03;;
13234;SDS011;6683;48.506;9.050;2023-06-04T04:43:34;5.93;;;5.00;;
13234;SDS011;6683;48.506;9.050;2023-06-04T04:46:40;4.93;;;4.43;;
13234;SDS011;6683;48.506;9.050;2023-06-04T04:49:45;5.60;;;5.00;;
13234;SDS011;6683;48.506;9.050;2023-06-04T04:52:49;4.97;;;4.50;;
13234;SDS011;6683;48.506;9.050;2023-06-04T04:55:51;6.13;;;5.53;;
13234;SDS011;6683;48.506;9.050;2023-06-04T04:58:53;5.23;;;4.47;;
13234;SDS011;6683;48.506;9.050;2023-06-04T05:01:57;6.00;;;4.60;;
13234;SDS011;6683;48.506;9.050;2023-06-04T05:04:59;5.63;;;5.10;;
13234;SDS011;6683;48.506;9.050;2023-06-04T05:08:02;6.43;;;5.00;;
13234;SDS011;6683;48.506;9.050;2023-06-04T05:11:04;6.20;;;5.17;;
13234;SDS011;6683;48.506;9.050;2023-06-04T05:14:07;5.43;;;4.93;;
13234;SDS011;6683;48.506;9.050;2023-06-04T05:17:12;6.83;;;5.57;;
13234;SDS011;6683;48.506;9.050;2023-06-04T05:20:16;6.57;;;5.97;;
13234;SDS011;6683;48.506;9.050;2023-06-04T05:23:19;7.73;;;6.30;;
13234;SDS011;6683;48.506;9.050;2023-06-04T05:26:21;6.97;;;6.23;;
13234;SDS011;6683;48.506;9.050;2023-06-04T05:29:25;6.67;;;6.00;;
13234;SDS011;6683;48.506;9.050;2023-06-04T05:32:29;6.53;;;5.83;;
13234;SDS011;6683;48.506;9.050;2023-06-04T05:35:32;7.43;;;6.13;;
13234;SDS011;6683;48.506;9.050;2023-06-04T05:38:34;6.63;;;5.83;;
13234;SDS011;6683;48.506;9.050;2023-06-04T05:41:37;6.50;;;5.90;;
13234;SDS011;6683;48.506;9.050;2023-06-04T05:44:40;6.57;;;5.53;;
13234;SDS011;6683;48.506;9.050;2023-06-04T05:47:44;6.37;;;5.67;;
13234;SDS011;6683;48.506;9.050;2023-06-04T05:50:47;6.93;;;5.57;;
13234;SDS011;6683;48.506;9.050;2023-06-04T05:53:49;8.40;;;6.13;;
13234;SDS011;6683;48.506;9.050;2023-06-04T05:56:52;6.27;;;5.67;;
13234;SDS011;6683;48.506;9.050;2023-06-04T05:59:54;6.57;;;5.83;;
13234;SDS011;6683;48.506;9.050;2023-06-04T06:02:58;6.17;;;5.37;;
13234;SDS011;6683;48.506;9.050;2023-06-04T06:06:02;6.27;;;5.33;;
13234;SDS011;6683;48.506;9.050;2023-06-04T06:09:05;6.13;;;5.20;;
13234;SDS011;6683;48.506;9.050;2023-06-04T06:12:09;7.00;;;5.17;;
13234;SDS011;6683;48.506;9.050;2023-06-04T06:15:11;5.83;;;4.70;;
13234;SDS011;6683;48.506;9.050;2023-06-04T06:18:15;5.03;;;4.53;;
13234;SDS011;6683;48.506;9.050;2023-06-04T06:21:18;6.17;;;4.90;;
13234;SDS011;6683;48.506;9.050;2023-06-04T06:24:20;5.83;;;4.90;;
13234;SDS011;6683;48.506;9.050;2023-06-04T06:27:22;5.20;;;3.93;;
13234;SDS011;6683;48.506;9.050;2023-06-04T06:30:25;4.20;;;3.10;;
13234;SDS011;6683;48.506;9.050;2023-06-04T06:33:29;3.47;;;2.97;;
13234;SDS011;6683;48.506;9.050;2023-06-04T06:36:31;3.53;;;2.50;;
13234;SDS011;6683;48.506;9.050;2023-06-04T06:39:34;2.50;;;2.30;;
13234;SDS011;6683;48.506;9.050;2023-06-04T06:42:36;2.80;;;2.20;;
13234;SDS011;6683;48.506;9.050;2023-06-04T06:45:38;4.20;;;2.30;;
13234;SDS011;6683;48.506;9.050;2023-06-04T06:48:42;2.50;;;2.23;;
13234;SDS011;6683;48.506;9.050;2023-06-04T06:51:45;2.80;;;2.40;;
13234;SDS011;6683;48.506;9.050;2023-06-04T06:54:47;3.77;;;2.30;;
13234;SDS011;6683;48.506;9.050;2023-06-04T06:57:50;3.53;;;2.40;;
13234;SDS011;6683;48.506;9.050;2023-06-04T07:00:52;4.40;;;2.63;;
13234;SDS011;6683;48.506;9.050;2023-06-04T07:03:58;4.00;;;2.50;;
13234;SDS011;6683;48.506;9.050;2023-06-04T07:07:00;3.10;;;2.23;;
13234;SDS011;6683;48.506;9.050;2023-06-04T07:10:03;3.03;;;1.93;;
13234;SDS011;6683;48.506;9.050;2023-06-04T07:13:06;4.17;;;2.00;;
13234;SDS011;6683;48.506;9.050;2023-06-04T07:16:09;3.70;;;2.37;;
13234;SDS011;6683;48.506;9.050;2023-06-04T07:19:12;3.57;;;2.10;;
13234;SDS011;6683;48.506;9.050;2023-06-04T07:22:15;2.20;;;2.00;;
13234;SDS011;6683;48.506;9.050;2023-06-04T07:25:19;2.20;;;1.97;;
13234;SDS011;6683;48.506;9.050;2023-06-04T07:28:23;2.67;;;1.83;;
13234;SDS011;6683;48.506;9.050;2023-06-04T07:31:26;2.50;;;2.03;;
13234;SDS011;6683;48.506;9.050;2023-06-04T07:34:30;2.37;;;1.77;;
13234;SDS011;6683;48.506;9.050;2023-06-04T07:37:32;3.27;;;1.80;;
13234;SDS011;6683;48.506;9.050;2023-06-04T07:40:35;2.70;;;1.80;;
13234;SDS011;6683;48.506;9.050;2023-06-04T07:43:37;2.63;;;1.83;;
13234;SDS011;6683;48.506;9.050;2023-06-04T07:46:40;2.37;;;1.90;;
13234;SDS011;6683;48.506;9.050;2023-06-04T07:49:44;2.23;;;1.83;;
13234;SDS011;6683;48.506;9.050;2023-06-04T07:52:46;2.20;;;2.00;;
13234;SDS011;6683;48.506;9.050;2023-06-04T07:55:50;2.00;;;1.80;;
13234;SDS011;6683;48.506;9.050;2023-06-04T07:58:52;3.27;;;1.83;;
13234;SDS011;6683;48.506;9.050;2023-06-04T08:01:55;2.63;;;1.77;;
13234;SDS011;6683;48.506;9.050;2023-06-04T08:04:58;2.10;;;1.90;;
13234;SDS011;6683;48.506;9.050;2023-06-04T08:08:02;2.28;;;1.95;;
13234;SDS011;6683;48.506;9.050;2023-06-04T08:11:04;2.28;;;1.70;;
13234;SDS011;6683;48.506;9.050;2023-06-04T08:14:06;1.88;;;1.77;;
13234;SDS011;6683;48.506;9.050;2023-06-04T08:17:08;2.23;;;2.00;;
13234;SDS011;6683;48.506;9.050;2023-06-04T08:20:12;2.00;;;1.80;;
13234;SDS011;6683;48.506;9.050;2023-06-04T08:23:14;2.40;;;2.17;;
13234;SDS011;6683;48.506;9.050;2023-06-04T08:26:17;1.85;;;1.70;;
13234;SDS011;6683;48.506;9.050;2023-06-04T08:29:19;2.72;;;1.52;;
13234;SDS011;6683;48.506;9.050;2023-06-04T08:32:22;1.88;;;1.77;;
13234;SDS011;6683;48.506;9.050;2023-06-04T08:35:26;2.35;;;1.90;;
13234;SDS011;6683;48.506;9.050;2023-06-04T08:38:28;4.15;;;2.25;;
13234;SDS011;6683;48.506;9.050;2023-06-04T08:41:42;2.28;;;2.08;;
13234;SDS011;6683;48.506;9.050;2023-06-04T08:44:50;2.95;;;2.38;;
13234;SDS011;6683;48.506;9.050;2023-06-04T08:47:54;4.28;;;1.92;;
13234;SDS011;6683;48.506;9.050;2023-06-04T08:50:59;2.28;;;2.08;;
13234;SDS011;6683;48.506;9.050;2023-06-04T08:54:08;3.30;;;2.00;;
13234;SDS011;6683;48.506;9.050;2023-06-04T08:57:10;2.25;;;1.88;;
13234;SDS011;6683;48.506;9.050;2023-06-04T09:00:13;2.28;;;1.77;;
13234;SDS011;6683;48.506;9.050;2023-06-04T09:03:18;2.28;;;2.08;;
13234;SDS011;6683;48.506;9.050;2023-06-04T09:06:24;2.00;;;1.83;;
13234;SDS011;6683;48.506;9.050;2023-06-04T09:09:27;2.30;;;2.10;;
13234;SDS011;6683;48.506;9.050;2023-06-04T09:12:30;2.40;;;2.20;;
13234;SDS011;6683;48.506;9.050;2023-06-04T09:15:34;2.92;;;1.83;;
13234;SDS011;6683;48.506;9.050;2023-06-04T09:18:36;3.92;;;2.03;;
13234;SDS011;6683;48.506;9.050;2023-06-04T09:21:50;3.13;;;2.20;;
13234;SDS011;6683;48.506;9.050;2023-06-04T09:24:54;1.88;;;1.77;;
13234;SDS011;6683;48.506;9.050;2023-06-04T09:27:58;3.05;;;2.20;;
13234;SDS011;6683;48.506;9.050;2023-06-04T09:31:08;2.50;;;2.17;;
13234;SDS011;6683;48.506;9.050;2023-06-04T09:34:11;2.40;;;2.00;;
13234;SDS011;6683;48.506;9.050;2023-06-04T09:37:15;2.78;;;2.20;;
13234;SDS011;6683;48.506;9.050;2023-06-04T09:40:18;2.78;;;2.13;;
13234;SDS011;6683;48.506;9.050;2023-06-04T09:43:21;2.58;;;2.28;;
13234;SDS011;6683;48.506;9.050;2023-06-04T09:46:23;2.60;;;2.40;;
13234;SDS011;6683;48.506;9.050;2023-06-04T09:49:26;2.22;;;2.03;;
13234;SDS011;6683;48.506;9.050;2023-06-04T09:52:33;3.22;;;2.22;;
13234;SDS011;6683;48.506;9.050;2023-06-04T09:55:37;2.67;;;2.47;;
13234;SDS011;6683;48.506;9.050;2023-06-04T09:58:40;3.03;;;2.35;;
13234;SDS011;6683;48.506;9.050;2023-06-04T10:01:44;2.22;;;2.03;;
13234;SDS011;6683;48.506;9.050;2023-06-04T10:04:52;2.55;;;2.35;;
13234;SDS011;6683;48.506;9.050;2023-06-04T10:07:58;2.38;;;2.17;;
13234;SDS011;6683;48.506;9.050;2023-06-04T10:11:07;3.90;;;2.05;;
13234;SDS011;6683;48.506;9.050;2023-06-04T10:14:12;5.18;;;2.65;;
13234;SDS011;6683;48.506;9.050;2023-06-04T10:17:21;2.10;;;1.90;;
13234;SDS011;6683;48.506;9.050;2023-06-04T10:20:25;2.42;;;2.22;;
13234;SDS011;6683;48.506;9.050;2023-06-04T10:23:29;2.80;;;2.53;;
13234;SDS011;6683;48.506;9.050;2023-06-04T10:26:32;2.50;;;2.30;;
13234;SDS011;6683;48.506;9.050;2023-06-04T10:29:35;2.45;;;2.03;;
13234;SDS011;6683;48.506;9.050;2023-06-04T10:32:38;2.40;;;2.20;;
13234;SDS011;6683;48.506;9.050;2023-06-04T10:35:40;2.45;;;2.25;;
13234;SDS011;6683;48.506;9.050;2023-06-04T10:38:46;3.90;;;2.30;;
13234;SDS011;6683;48.506;9.050;2023-06-04T10:41:56;2.95;;;2.03;;
13234;SDS011;6683;48.506;9.050;2023-06-04T10:45:00;2.30;;;2.10;;
13234;SDS011;6683;48.506;9.050;2023-06-04T10:48:03;2.60;;;2.40;;
13234;SDS011;6683;48.506;9.050;2023-06-04T10:51:07;2.58;;;2.38;;
13234;SDS011;6683;48.506;9.050;2023-06-04T10:54:21;3.92;;;2.70;;
13234;SDS011;6683;48.506;9.050;2023-06-04T10:57:25;3.33;;;2.60;;
13234;SDS011;6683;48.506;9.050;2023-06-04T11:00:34;2.50;;;2.30;;
13234;SDS011;6683;48.506;9.050;2023-06-04T11:03:47;3.75;;;2.47;;
13234;SDS011;6683;48.506;9.050;2023-06-04T11:06:59;2.88;;;2.60;;
13234;SDS011;6683;48.506;9.050;2023-06-04T11:10:10;3.22;;;2.25;;
13234;SDS011;6683;48.506;9.050;2023-06-04T11:13:13;2.83;;;2.63;;
13234;SDS011;6683;48.506;9.050;2023-06-04T11:16:16;2.67;;;2.47;;
13234;SDS011;6683;48.506;9.050;2023-06-04T11:19:19;3.08;;;2.58;;
13234;SDS011;6683;48.506;9.050;2023-06-04T11:22:22;2.50;;;2.25;;
13234;SDS011;6683;48.506;9.050;2023-06-04T11:25:26;3.70;;;2.58;;
13234;SDS011;6683;48.506;9.050;2023-06-04T11:28:30;2.95;;;2.75;;
13234;SDS011;6683;48.506;9.050;2023-06-04T11:31:40;2.47;;;2.15;;
13234;SDS011;6683;48.506;9.050;2023-06-04T11:34:43;2.67;;;2.47;;
13234;SDS011;6683;48.506;9.050;2023-06-04T11:37:52;2.90;;;2.65;;
13234;SDS011;6683;48.506;9.050;2023-06-04T11:40:58;3.58;;;2.70;;
13234;SDS011;6683;48.506;9.050;2023-06-04T11:44:05;2.67;;;2.47;;
13234;SDS011;6683;48.506;9.050;2023-06-04T11:47:08;2.92;;;2.63;;
13234;SDS011;6683;48.506;9.050;2023-06-04T11:50:11;3.08;;;2.80;;
13234;SDS011;6683;48.506;9.050;2023-06-04T11:53:14;3.42;;;3.13;;
13234;SDS011;6683;48.506;9.050;2023-06-04T11:56:18;4.25;;;3.28;;
13234;SDS011;6683;48.506;9.050;2023-06-04T11:59:20;3.25;;;2.95;;
13234;SDS011;6683;48.506;9.050;2023-06-04T12:30:20;3.55;;;2.88;;
13234;SDS011;6683;48.506;9.050;2023-06-04T12:33:24;3.67;;;3.28;;
13234;SDS011;6683;48.506;9.050;2023-06-04T12:36:26;4.05;;;2.83;;
13234;SDS011;6683;48.506;9.050;2023-06-04T12:39:29;3.10;;;2.90;;
13234;SDS011;6683;48.506;9.050;2023-06-04T12:42:32;3.30;;;3.00;;
13234;SDS011;6683;48.506;9.050;2023-06-04T12:45:36;3.40;;;3.10;;
13234;SDS011;6683;48.506;9.050;2023-06-04T12:48:38;3.88;;;2.92;;
13234;SDS011;6683;48.506;9.050;2023-06-04T12:51:40;4.15;;;3.08;;
13234;SDS011;6683;48.506;9.050;2023-06-04T12:54:43;3.90;;;3.33;;
13234;SDS011;6683;48.506;9.050;2023-06-04T12:57:46;3.45;;;3.15;;
13234;SDS011;6683;48.506;9.050;2023-06-04T13:00:50;3.05;;;2.75;;
13234;SDS011;6683;48.506;9.050;2023-06-04T13:03:52;3.30;;;3.00;;
13234;SDS011;6683;48.506;9.050;2023-06-04T13:06:55;3.50;;;3.20;;
13234;SDS011;6683;48.506;9.050;2023-06-04T13:09:59;3.70;;;3.05;;
13234;SDS011;6683;48.506;9.050;2023-06-04T13:13:01;3.30;;;2.83;;
13234;SDS011;6683;48.506;9.050;2023-06-04T13:16:05;3.22;;;2.65;;
13234;SDS011;6683;48.506;9.050;2023-06-04T13:19:09;3.53;;;3.17;;
13234;SDS011;6683;48.506;9.050;2023-06-04T13:22:11;3.50;;;2.75;;
13234;SDS011;6683;48.506;9.050;2023-06-04T13:25:14;3.13;;;2.92;;
13234;SDS011;6683;48.506;9.050;2023-06-04T13:28:16;3.47;;;3.17;;
13234;SDS011;6683;48.506;9.050;2023-06-04T13:31:20;3.78;;;3.42;;
13234;SDS011;6683;48.506;9.050;2023-06-04T13:34:23;3.10;;;2.90;;
13234;SDS011;6683;48.506;9.050;2023-06-04T13:37:25;3.33;;;3.08;;
13234;SDS011;6683;48.506;9.050;2023-06-04T13:40:27;3.38;;;3.10;;
13234;SDS011;6683;48.506;9.050;2023-06-04T13:43:29;3.55;;;3.20;;
13234;SDS011;6683;48.506;9.050;2023-06-04T13:46:33;4.18;;;3.15;;
13234;SDS011;6683;48.506;9.050;2023-06-04T13:49:36;3.45;;;3.15;;
13234;SDS011;6683;48.506;9.050;2023-06-04T13:52:38;3.45;;;3.00;;
13234;SDS011;6683;48.506;9.050;2023-06-04T13:55:40;3.80;;;3.35;;
13234;SDS011;6683;48.506;9.050;2023-06-04T13:58:42;2.83;;;2.63;;
13234;SDS011;6683;48.506;9.050;2023-06-04T14:01:46;3.65;;;3.35;;
13234;SDS011;6683;48.506;9.050;2023-06-04T14:04:49;3.17;;;2.97;;
13234;SDS011;6683;48.506;9.050;2023-06-04T14:07:52;3.70;;;3.40;;
13234;SDS011;6683;48.506;9.050;2023-06-04T14:10:55;4.10;;;3.17;;
13234;SDS011;6683;48.506;9.050;2023-06-04T14:13:57;4.22;;;3.40;;
13234;SDS011;6683;48.506;9.050;2023-06-04T14:17:01;3.28;;;3.03;;
13234;SDS011;6683;48.506;9.050;2023-06-04T14:20:04;3.72;;;3.42;;
13234;SDS011;6683;48.506;9.050;2023-06-04T14:23:08;3.90;;;3.60;;
13234;SDS011;6683;48.506;9.050;2023-06-04T14:26:11;3.63;;;2.97;;
13234;SDS011;6683;48.506;9.050;2023-06-04T14:29:16;4.45;;;3.50;;
13234;SDS011;6683;48.506;9.050;2023-06-04T14:32:20;3.45;;;3.15;;
13234;SDS011;6683;48.506;9.050;2023-06-04T14:35:22;3.20;;;2.90;;
13234;SDS011;6683;48.506;9.050;2023-06-04T14:38:25;3.50;;;3.20;;
13234;SDS011;6683;48.506;9.050;2023-06-04T14:41:27;3.47;;;3.17;;
13234;SDS011;6683;48.506;9.050;2023-06-04T14:44:30;2.92;;;2.72;;
13234;SDS011;6683;48.506;9.050;2023-06-04T14:47:33;3.55;;;3.15;;
13234;SDS011;6683;48.506;9.050;2023-06-04T14:50:36;3.40;;;3.10;;
13234;SDS011;6683;48.506;9.050;2023-06-04T14:53:38;3.38;;;3.08;;
13234;SDS011;6683;48.506;9.050;2023-06-04T14:56:40;3.45;;;3.15;;
13234;SDS011;6683;48.506;9.050;2023-06-04T14:59:43;2.60;;;2.40;;
13234;SDS011;6683;48.506;9.050;2023-06-04T15:02:47;4.05;;;2.63;;
13234;SDS011;6683;48.506;9.050;2023-06-04T15:05:49;4.65;;;2.53;;
13234;SDS011;6683;48.506;9.050;2023-06-04T15:08:51;2.95;;;2.75;;
13234;SDS011;6683;48.506;9.050;2023-06-04T15:11:54;3.05;;;2.75;;
13234;SDS011;6683;48.506;9.050;2023-06-04T15:14:56;3.15;;;2.80;;
13234;SDS011;6683;48.506;9.050;2023-06-04T15:18:00;2.88;;;2.67;;
13234;SDS011;6683;48.506;9.050;2023-06-04T15:21:02;2.88;;;2.67;;
13234;SDS011;6683;48.506;9.050;2023-06-04T15:24:04;3.22;;;2.85;;
13234;SDS011;6683;48.506;9.050;2023-06-04T15:27:08;2.90;;;2.70;;
13234;SDS011;6683;48.506;9.050;2023-06-04T15:30:11;2.92;;;2.72;;
13234;SDS011;6683;48.506;9.050;2023-06-04T15:33:15;3.25;;;2.95;;
13234;SDS011;6683;48.506;9.050;2023-06-04T15:36:18;3.55;;;2.47;;
13234;SDS011;6683;48.506;9.050;2023-06-04T15:39:21;2.90;;;2.67;;
13234;SDS011;6683;48.506;9.050;2023-06-04T15:42:23;3.05;;;2.70;;
13234;SDS011;6683;48.506;9.050;2023-06-04T15:45:25;2.85;;;2.60;;
13234;SDS011;6683;48.506;9.050;2023-06-04T15:48:29;2.75;;;2.45;;
13234;SDS011;6683;48.506;9.050;2023-06-04T15:51:31;2.60;;;2.25;;
13234;SDS011;6683;48.506;9.050;2023-06-04T15:54:33;4.38;;;2.75;;
13234;SDS011;6683;48.506;9.050;2023-06-04T15:57:36;2.83;;;2.63;;
13234;SDS011;6683;48.506;9.050;2023-06-04T16:00:38;2.55;;;2.35;;
13234;SDS011;6683;48.506;9.050;2023-06-04T16:03:42;3.05;;;2.75;;
13234;SDS011;6683;48.506;9.050;2023-06-04T16:06:44;3.00;;;2.75;;
13234;SDS011;6683;48.506;9.050;2023-06-04T16:09:46;3.03;;;2.75;;
13234;SDS011;6683;48.506;9.050;2023-06-04T16:12:49;3.20;;;2.70;;
13234;SDS011;6683;48.506;9.050;2023-06-04T16:15:52;2.88;;;2.67;;
13234;SDS011;6683;48.506;9.050;2023-06-04T16:18:57;2.85;;;2.45;;
13234;SDS011;6683;48.506;9.050;2023-06-04T16:21:59;2.58;;;2.38;;
13234;SDS011;6683;48.506;9.050;2023-06-04T16:25:02;2.50;;;2.30;;
13234;SDS011;6683;48.506;9.050;2023-06-04T16:28:04;2.40;;;2.20;;
13234;SDS011;6683;48.506;9.050;2023-06-04T16:31:07;2.90;;;2.33;;
13234;SDS011;6683;48.506;9.050;2023-06-04T16:34:11;2.80;;;2.60;;
13234;SDS011;6683;48.506;9.050;2023-06-04T16:37:13;2.95;;;2.65;;
13234;SDS011;6683;48.506;9.050;2023-06-04T16:40:16;2.65;;;2.45;;
13234;SDS011;6683;48.506;9.050;2023-06-04T16:43:18;2.63;;;2.42;;
13234;SDS011;6683;48.506;9.050;2023-06-04T16:46:20;2.53;;;2.33;;
13234;SDS011;6683;48.506;9.050;2023-06-04T16:49:24;2.60;;;2.40;;
13234;SDS011;6683;48.506;9.050;2023-06-04T16:52:27;2.55;;;2.35;;
13234;SDS011;6683;48.506;9.050;2023-06-04T16:55:29;2.53;;;2.33;;
13234;SDS011;6683;48.506;9.050;2023-06-04T16:58:33;2.85;;;2.53;;
13234;SDS011;6683;48.506;9.050;2023-06-04T17:01:38;2.50;;;2.30;;
13234;SDS011;6683;48.506;9.050;2023-06-04T17:04:42;2.65;;;2.45;;
13234;SDS011;6683;48.506;9.050;2023-06-04T17:07:45;2.38;;;2.17;;
13234;SDS011;6683;48.506;9.050;2023-06-04T17:10:47;4.05;;;2.60;;
13234;SDS011;6683;48.506;9.050;2023-06-04T17:13:49;2.53;;;2.33;;
13234;SDS011;6683;48.506;9.050;2023-06-04T17:16:51;3.08;;;2.83;;
13234;SDS011;6683;48.506;9.050;2023-06-04T17:19:55;3.10;;;2.20;;
13234;SDS011;6683;48.506;9.050;2023-06-04T17:22:58;2.38;;;2.17;;
13234;SDS011;6683;48.506;9.050;2023-06-04T17:26:01;2.65;;;2.45;;
13234;SDS011;6683;48.506;9.050;2023-06-04T17:29:05;3.30;;;2.28;;
13234;SDS011;6683;48.506;9.050;2023-06-04T17:32:07;2.50;;;2.30;;
13234;SDS011;6683;48.506;9.050;2023-06-04T17:35:12;2.55;;;2.35;;
13234;SDS011;6683;48.506;9.050;2023-06-04T17:38:15;2.42;;;2.22;;
13234;SDS011;6683;48.506;9.050;2023-06-04T17:41:18;2.58;;;2.38;;
13234;SDS011;6683;48.506;9.050;2023-06-04T17:44:20;3.08;;;2.25;;
13234;SDS011;6683;48.506;9.050;2023-06-04T17:47:22;2.50;;;2.30;;
13234;SDS011;6683;48.506;9.050;2023-06-04T17:50:25;3.35;;;2.33;;
13234;SDS011;6683;48.506;9.050;2023-06-04T17:53:27;2.60;;;2.40;;
13234;SDS011;6683;48.506;9.050;2023-06-04T17:56:30;2.60;;;2.40;;
13234;SDS011;6683;48.506;9.050;2023-06-04T17:59:32;2.45;;;2.25;;
13234;SDS011;6683;48.506;9.050;2023-06-04T18:02:35;2.33;;;2.13;;
13234;SDS011;6683;48.506;9.050;2023-06-04T18:05:39;2.97;;;2.17;;
13234;SDS011;6683;48.506;9.050;2023-06-04T18:08:41;2.55;;;2.30;;
13234;SDS011;6683;48.506;9.050;2023-06-04T18:11:44;2.65;;;2.15;;
13234;SDS011;6683;48.506;9.050;2023-06-04T18:14:46;2.72;;;2.35;;
13234;SDS011;6683;48.506;9.050;2023-06-04T18:17:48;2.80;;;2.60;;
13234;SDS011;6683;48.506;9.050;2023-06-04T18:20:52;2.83;;;2.30;;
13234;SDS011;6683;48.506;9.050;2023-06-04T18:23:54;2.63;;;2.40;;
13234;SDS011;6683;48.506;9.050;2023-06-04T18:26:57;2.50;;;2.30;;
13234;SDS011;6683;48.506;9.050;2023-06-04T18:29:59;2.80;;;2.60;;
13234;SDS011;6683;48.506;9.050;2023-06-04T18:33:02;2.72;;;2.40;;
13234;SDS011;6683;48.506;9.050;2023-06-04T18:36:06;3.40;;;2.70;;
13234;SDS011;6683;48.506;9.050;2023-06-04T18:39:08;3.70;;;2.35;;
13234;SDS011;6683;48.506;9.050;2023-06-04T18:42:11;2.83;;;2.40;;
13234;SDS011;6683;48.506;9.050;2023-06-04T18:45:13;2.40;;;2.20;;
13234;SDS011;6683;48.506;9.050;2023-06-04T18:48:17;3.25;;;2.10;;
13234;SDS011;6683;48.506;9.050;2023-06-04T18:51:20;2.55;;;2.35;;
13234;SDS011;6683;48.506;9.050;2023-06-04T18:54:23;2.33;;;2.05;;
13234;SDS011;6683;48.506;9.050;2023-06-04T18:57:26;2.72;;;2.20;;
13234;SDS011;6683;48.506;9.050;2023-06-04T19:00:28;2.50;;;2.30;;
13234;SDS011;6683;48.506;9.050;2023-06-04T19:03:30;2.28;;;1.73;;
13234;SDS011;6683;48.506;9.050;2023-06-04T19:06:34;1.95;;;1.85;;
13234;SDS011;6683;48.506;9.050;2023-06-04T19:09:36;1.90;;;1.70;;